Terminal Aerodrome Forecast
Issued by NWS

Home | Current Version | Previous Version | Text Only | Print | Product List | Glossary On
Versions: 1 2 3 4 5 6 7 8 9 10 11 12 13 14 15 16 17 18 19 20 21 22
000
FTUS41 KBGM 311500 AAB
TAFELM
TAF AMD
KELM 311518Z 3115/0112 24011G18KT P6SM BKN025 OVC030
     FM311700 25008KT P6SM BKN040
      TEMPO 3118/3122 5SM SHRA BR
     FM010100 VRB03KT P6SM BKN100
      TEMPO 0108/0112 4SM BR=

USA.gov is the U.S. government's official web portal to all federal, state and local government web resources and services.